sensor_id;sensor_type;location;lat;lon;timestamp;P1;durP1;ratioP1;P2;durP2;ratioP2
73693;SDS011;61997;53.974;11.670;2024-01-07T00:02:25;2.88;;;1.75;;
73693;SDS011;61997;53.974;11.670;2024-01-07T00:04:50;3.45;;;1.20;;
73693;SDS011;61997;53.974;11.670;2024-01-07T00:07:16;3.97;;;2.08;;
73693;SDS011;61997;53.974;11.670;2024-01-07T00:09:41;2.72;;;1.88;;
73693;SDS011;61997;53.974;11.670;2024-01-07T00:12:07;3.65;;;1.85;;
73693;SDS011;61997;53.974;11.670;2024-01-07T00:14:32;3.60;;;2.00;;
73693;SDS011;61997;53.974;11.670;2024-01-07T00:16:58;6.32;;;2.70;;
73693;SDS011;61997;53.974;11.670;2024-01-07T00:19:23;4.85;;;2.28;;
73693;SDS011;61997;53.974;11.670;2024-01-07T00:21:49;3.65;;;2.00;;
73693;SDS011;61997;53.974;11.670;2024-01-07T00:24:15;4.15;;;1.90;;
73693;SDS011;61997;53.974;11.670;2024-01-07T00:26:40;4.70;;;1.58;;
73693;SDS011;61997;53.974;11.670;2024-01-07T00:29:06;4.97;;;1.83;;
73693;SDS011;61997;53.974;11.670;2024-01-07T00:31:31;5.47;;;3.35;;
73693;SDS011;61997;53.974;11.670;2024-01-07T00:33:57;5.13;;;2.20;;
73693;SDS011;61997;53.974;11.670;2024-01-07T00:36:22;4.05;;;2.33;;
73693;SDS011;61997;53.974;11.670;2024-01-07T00:38:47;4.18;;;2.10;;
73693;SDS011;61997;53.974;11.670;2024-01-07T00:41:13;5.82;;;2.72;;
73693;SDS011;61997;53.974;11.670;2024-01-07T00:43:38;3.58;;;2.20;;
73693;SDS011;61997;53.974;11.670;2024-01-07T00:46:04;3.78;;;2.10;;
73693;SDS011;61997;53.974;11.670;2024-01-07T00:48:29;6.88;;;2.72;;
73693;SDS011;61997;53.974;11.670;2024-01-07T00:50:54;4.15;;;2.50;;
73693;SDS011;61997;53.974;11.670;2024-01-07T00:53:20;4.95;;;2.22;;
73693;SDS011;61997;53.974;11.670;2024-01-07T00:55:45;4.90;;;2.22;;
73693;SDS011;61997;53.974;11.670;2024-01-07T00:58:11;5.03;;;2.10;;
73693;SDS011;61997;53.974;11.670;2024-01-07T01:00:36;6.47;;;2.47;;
73693;SDS011;61997;53.974;11.670;2024-01-07T01:03:01;5.70;;;2.55;;
73693;SDS011;61997;53.974;11.670;2024-01-07T01:05:27;4.90;;;2.55;;
73693;SDS011;61997;53.974;11.670;2024-01-07T01:07:52;5.10;;;2.47;;
73693;SDS011;61997;53.974;11.670;2024-01-07T01:10:18;6.32;;;3.00;;
73693;SDS011;61997;53.974;11.670;2024-01-07T01:12:44;4.88;;;2.60;;
73693;SDS011;61997;53.974;11.670;2024-01-07T01:15:09;4.95;;;3.10;;
73693;SDS011;61997;53.974;11.670;2024-01-07T01:17:35;4.15;;;2.38;;
73693;SDS011;61997;53.974;11.670;2024-01-07T01:20:00;5.50;;;2.53;;
73693;SDS011;61997;53.974;11.670;2024-01-07T01:22:26;6.70;;;3.30;;
73693;SDS011;61997;53.974;11.670;2024-01-07T01:24:51;5.40;;;2.85;;
73693;SDS011;61997;53.974;11.670;2024-01-07T01:27:18;6.88;;;3.33;;
73693;SDS011;61997;53.974;11.670;2024-01-07T01:29:44;6.78;;;3.15;;
73693;SDS011;61997;53.974;11.670;2024-01-07T01:32:09;6.30;;;2.72;;
73693;SDS011;61997;53.974;11.670;2024-01-07T01:34:35;5.82;;;3.15;;
73693;SDS011;61997;53.974;11.670;2024-01-07T01:37:02;6.30;;;2.95;;
73693;SDS011;61997;53.974;11.670;2024-01-07T01:39:28;5.57;;;2.90;;
73693;SDS011;61997;53.974;11.670;2024-01-07T01:41:54;6.13;;;3.10;;
73693;SDS011;61997;53.974;11.670;2024-01-07T01:44:20;5.60;;;3.15;;
73693;SDS011;61997;53.974;11.670;2024-01-07T01:46:46;5.65;;;2.97;;
73693;SDS011;61997;53.974;11.670;2024-01-07T01:49:12;5.53;;;2.85;;
73693;SDS011;61997;53.974;11.670;2024-01-07T01:51:37;6.43;;;2.72;;
73693;SDS011;61997;53.974;11.670;2024-01-07T01:54:03;6.68;;;3.20;;
73693;SDS011;61997;53.974;11.670;2024-01-07T01:56:28;6.22;;;2.80;;
73693;SDS011;61997;53.974;11.670;2024-01-07T01:58:54;5.93;;;3.17;;
73693;SDS011;61997;53.974;11.670;2024-01-07T02:01:20;7.40;;;3.60;;
73693;SDS011;61997;53.974;11.670;2024-01-07T02:03:46;6.63;;;2.92;;
73693;SDS011;61997;53.974;11.670;2024-01-07T02:06:11;9.10;;;3.50;;
73693;SDS011;61997;53.974;11.670;2024-01-07T02:08:37;7.03;;;3.40;;
73693;SDS011;61997;53.974;11.670;2024-01-07T02:11:19;5.35;;;3.00;;
73693;SDS011;61997;53.974;11.670;2024-01-07T02:13:45;7.80;;;2.92;;
73693;SDS011;61997;53.974;11.670;2024-01-07T02:16:11;7.38;;;3.40;;
73693;SDS011;61997;53.974;11.670;2024-01-07T02:18:37;6.47;;;3.53;;
73693;SDS011;61997;53.974;11.670;2024-01-07T02:21:03;7.80;;;3.42;;
73693;SDS011;61997;53.974;11.670;2024-01-07T02:23:29;7.93;;;3.17;;
73693;SDS011;61997;53.974;11.670;2024-01-07T02:25:54;6.82;;;3.40;;
73693;SDS011;61997;53.974;11.670;2024-01-07T02:28:19;7.35;;;3.00;;
73693;SDS011;61997;53.974;11.670;2024-01-07T02:30:45;9.63;;;3.63;;
73693;SDS011;61997;53.974;11.670;2024-01-07T02:33:10;7.28;;;4.00;;
73693;SDS011;61997;53.974;11.670;2024-01-07T02:35:36;10.77;;;4.20;;
73693;SDS011;61997;53.974;11.670;2024-01-07T02:38:01;5.78;;;3.75;;
73693;SDS011;61997;53.974;11.670;2024-01-07T02:40:26;9.00;;;4.10;;
73693;SDS011;61997;53.974;11.670;2024-01-07T02:42:52;6.22;;;3.67;;
73693;SDS011;61997;53.974;11.670;2024-01-07T02:45:17;7.55;;;3.45;;
73693;SDS011;61997;53.974;11.670;2024-01-07T02:47:42;7.10;;;3.72;;
73693;SDS011;61997;53.974;11.670;2024-01-07T02:50:08;9.65;;;4.03;;
73693;SDS011;61997;53.974;11.670;2024-01-07T02:52:33;7.35;;;3.65;;
73693;SDS011;61997;53.974;11.670;2024-01-07T02:54:59;9.00;;;4.05;;
73693;SDS011;61997;53.974;11.670;2024-01-07T02:57:26;11.13;;;3.53;;
73693;SDS011;61997;53.974;11.670;2024-01-07T02:59:52;9.60;;;4.00;;
73693;SDS011;61997;53.974;11.670;2024-01-07T03:02:17;7.75;;;3.22;;
73693;SDS011;61997;53.974;11.670;2024-01-07T03:04:43;7.78;;;3.80;;
73693;SDS011;61997;53.974;11.670;2024-01-07T03:07:08;7.60;;;3.42;;
73693;SDS011;61997;53.974;11.670;2024-01-07T03:09:34;7.38;;;3.42;;
73693;SDS011;61997;53.974;11.670;2024-01-07T03:11:59;8.77;;;3.42;;
73693;SDS011;61997;53.974;11.670;2024-01-07T03:14:25;6.22;;;3.80;;
73693;SDS011;61997;53.974;11.670;2024-01-07T03:16:51;8.55;;;3.70;;
73693;SDS011;61997;53.974;11.670;2024-01-07T03:19:17;6.90;;;3.35;;
73693;SDS011;61997;53.974;11.670;2024-01-07T03:21:42;10.25;;;3.47;;
73693;SDS011;61997;53.974;11.670;2024-01-07T03:24:07;8.10;;;4.85;;
73693;SDS011;61997;53.974;11.670;2024-01-07T03:26:33;7.75;;;4.28;;
73693;SDS011;61997;53.974;11.670;2024-01-07T03:28:58;7.10;;;3.15;;
73693;SDS011;61997;53.974;11.670;2024-01-07T03:31:27;7.18;;;4.43;;
73693;SDS011;61997;53.974;11.670;2024-01-07T03:33:53;7.03;;;3.20;;
73693;SDS011;61997;53.974;11.670;2024-01-07T03:36:19;6.13;;;3.20;;
73693;SDS011;61997;53.974;11.670;2024-01-07T03:38:45;7.53;;;3.88;;
73693;SDS011;61997;53.974;11.670;2024-01-07T03:41:15;9.27;;;3.58;;
73693;SDS011;61997;53.974;11.670;2024-01-07T03:43:42;6.65;;;3.53;;
73693;SDS011;61997;53.974;11.670;2024-01-07T03:46:07;6.35;;;3.35;;
73693;SDS011;61997;53.974;11.670;2024-01-07T03:48:32;5.47;;;3.00;;
73693;SDS011;61997;53.974;11.670;2024-01-07T03:50:58;6.95;;;3.50;;
73693;SDS011;61997;53.974;11.670;2024-01-07T03:53:23;6.78;;;3.33;;
73693;SDS011;61997;53.974;11.670;2024-01-07T03:55:49;7.20;;;3.67;;
73693;SDS011;61997;53.974;11.670;2024-01-07T03:58:14;7.82;;;3.67;;
73693;SDS011;61997;53.974;11.670;2024-01-07T04:00:39;6.28;;;3.22;;
73693;SDS011;61997;53.974;11.670;2024-01-07T04:03:05;6.40;;;4.03;;
73693;SDS011;61997;53.974;11.670;2024-01-07T04:05:30;8.70;;;3.35;;
73693;SDS011;61997;53.974;11.670;2024-01-07T04:07:55;4.53;;;2.80;;
73693;SDS011;61997;53.974;11.670;2024-01-07T04:10:21;5.50;;;2.75;;
73693;SDS011;61997;53.974;11.670;2024-01-07T04:12:46;7.00;;;3.80;;
73693;SDS011;61997;53.974;11.670;2024-01-07T04:15:12;8.93;;;3.40;;
73693;SDS011;61997;53.974;11.670;2024-01-07T04:17:37;6.35;;;2.92;;
73693;SDS011;61997;53.974;11.670;2024-01-07T04:20:03;7.10;;;3.53;;
73693;SDS011;61997;53.974;11.670;2024-01-07T04:22:29;8.00;;;3.55;;
73693;SDS011;61997;53.974;11.670;2024-01-07T04:24:54;6.10;;;3.28;;
73693;SDS011;61997;53.974;11.670;2024-01-07T04:27:20;6.95;;;2.83;;
73693;SDS011;61997;53.974;11.670;2024-01-07T04:29:45;7.38;;;3.78;;
73693;SDS011;61997;53.974;11.670;2024-01-07T04:32:10;6.47;;;3.00;;
73693;SDS011;61997;53.974;11.670;2024-01-07T04:34:36;4.72;;;2.60;;
73693;SDS011;61997;53.974;11.670;2024-01-07T04:37:01;5.55;;;3.05;;
73693;SDS011;61997;53.974;11.670;2024-01-07T04:39:26;6.18;;;2.72;;
73693;SDS011;61997;53.974;11.670;2024-01-07T04:41:52;5.22;;;2.28;;
73693;SDS011;61997;53.974;11.670;2024-01-07T04:44:17;7.22;;;3.03;;
73693;SDS011;61997;53.974;11.670;2024-01-07T04:46:43;5.90;;;2.88;;
73693;SDS011;61997;53.974;11.670;2024-01-07T04:49:08;5.15;;;2.97;;
73693;SDS011;61997;53.974;11.670;2024-01-07T04:51:33;5.90;;;2.40;;
73693;SDS011;61997;53.974;11.670;2024-01-07T04:53:59;4.75;;;2.47;;
73693;SDS011;61997;53.974;11.670;2024-01-07T04:56:24;7.97;;;3.00;;
73693;SDS011;61997;53.974;11.670;2024-01-07T04:58:49;4.85;;;2.28;;
73693;SDS011;61997;53.974;11.670;2024-01-07T05:01:15;4.72;;;2.60;;
73693;SDS011;61997;53.974;11.670;2024-01-07T05:03:40;6.20;;;3.13;;
73693;SDS011;61997;53.974;11.670;2024-01-07T05:06:09;8.07;;;3.22;;
73693;SDS011;61997;53.974;11.670;2024-01-07T05:08:36;4.78;;;2.10;;
73693;SDS011;61997;53.974;11.670;2024-01-07T05:11:10;6.90;;;2.42;;
73693;SDS011;61997;53.974;11.670;2024-01-07T05:13:36;4.60;;;2.22;;
73693;SDS011;61997;53.974;11.670;2024-01-07T05:16:02;5.40;;;2.25;;
73693;SDS011;61997;53.974;11.670;2024-01-07T05:18:27;5.05;;;2.30;;
73693;SDS011;61997;53.974;11.670;2024-01-07T05:20:53;5.28;;;2.40;;
73693;SDS011;61997;53.974;11.670;2024-01-07T05:23:18;6.50;;;2.55;;
73693;SDS011;61997;53.974;11.670;2024-01-07T05:25:44;5.35;;;2.45;;
73693;SDS011;61997;53.974;11.670;2024-01-07T05:28:10;5.53;;;2.65;;
73693;SDS011;61997;53.974;11.670;2024-01-07T05:30:36;3.85;;;2.03;;
73693;SDS011;61997;53.974;11.670;2024-01-07T05:33:01;3.88;;;2.20;;
73693;SDS011;61997;53.974;11.670;2024-01-07T05:35:27;5.53;;;2.13;;
73693;SDS011;61997;53.974;11.670;2024-01-07T05:37:52;4.32;;;2.17;;
73693;SDS011;61997;53.974;11.670;2024-01-07T05:40:17;5.35;;;2.72;;
73693;SDS011;61997;53.974;11.670;2024-01-07T05:42:43;5.78;;;2.30;;
73693;SDS011;61997;53.974;11.670;2024-01-07T05:45:08;2.95;;;1.75;;
73693;SDS011;61997;53.974;11.670;2024-01-07T05:47:34;4.28;;;2.25;;
73693;SDS011;61997;53.974;11.670;2024-01-07T05:49:59;3.65;;;2.08;;
73693;SDS011;61997;53.974;11.670;2024-01-07T05:52:24;4.00;;;2.08;;
73693;SDS011;61997;53.974;11.670;2024-01-07T05:54:50;3.22;;;1.63;;
73693;SDS011;61997;53.974;11.670;2024-01-07T05:57:15;3.70;;;1.83;;
73693;SDS011;61997;53.974;11.670;2024-01-07T05:59:43;6.30;;;1.95;;
73693;SDS011;61997;53.974;11.670;2024-01-07T06:02:08;4.50;;;1.95;;
73693;SDS011;61997;53.974;11.670;2024-01-07T06:04:34;5.55;;;2.10;;
73693;SDS011;61997;53.974;11.670;2024-01-07T06:06:59;4.30;;;1.90;;
73693;SDS011;61997;53.974;11.670;2024-01-07T06:09:25;4.22;;;1.77;;
73693;SDS011;61997;53.974;11.670;2024-01-07T06:11:50;3.97;;;1.67;;
73693;SDS011;61997;53.974;11.670;2024-01-07T06:14:15;3.95;;;1.75;;
73693;SDS011;61997;53.974;11.670;2024-01-07T06:16:41;4.75;;;2.03;;
73693;SDS011;61997;53.974;11.670;2024-01-07T06:19:07;4.47;;;1.92;;
73693;SDS011;61997;53.974;11.670;2024-01-07T06:21:33;3.38;;;1.80;;
73693;SDS011;61997;53.974;11.670;2024-01-07T06:23:58;3.38;;;2.35;;
73693;SDS011;61997;53.974;11.670;2024-01-07T06:26:23;3.90;;;1.77;;
73693;SDS011;61997;53.974;11.670;2024-01-07T06:28:49;3.70;;;1.90;;
73693;SDS011;61997;53.974;11.670;2024-01-07T06:31:15;4.22;;;1.80;;
73693;SDS011;61997;53.974;11.670;2024-01-07T06:33:40;6.28;;;2.13;;
73693;SDS011;61997;53.974;11.670;2024-01-07T06:36:05;2.63;;;1.50;;
73693;SDS011;61997;53.974;11.670;2024-01-07T06:38:31;3.58;;;1.70;;
73693;SDS011;61997;53.974;11.670;2024-01-07T06:40:56;3.90;;;1.80;;
73693;SDS011;61997;53.974;11.670;2024-01-07T06:43:26;3.13;;;1.40;;
73693;SDS011;61997;53.974;11.670;2024-01-07T06:45:52;4.57;;;2.00;;
73693;SDS011;61997;53.974;11.670;2024-01-07T06:48:18;4.07;;;1.80;;
73693;SDS011;61997;53.974;11.670;2024-01-07T06:50:43;4.38;;;1.70;;
73693;SDS011;61997;53.974;11.670;2024-01-07T06:53:09;3.45;;;1.70;;
73693;SDS011;61997;53.974;11.670;2024-01-07T06:55:34;3.50;;;1.65;;
73693;SDS011;61997;53.974;11.670;2024-01-07T06:58:00;4.07;;;1.83;;
73693;SDS011;61997;53.974;11.670;2024-01-07T07:00:25;4.57;;;2.15;;
73693;SDS011;61997;53.974;11.670;2024-01-07T07:02:51;3.47;;;1.63;;
73693;SDS011;61997;53.974;11.670;2024-01-07T07:05:16;3.47;;;1.55;;
73693;SDS011;61997;53.974;11.670;2024-01-07T07:07:42;3.20;;;1.42;;
73693;SDS011;61997;53.974;11.670;2024-01-07T07:10:07;3.10;;;1.30;;
73693;SDS011;61997;53.974;11.670;2024-01-07T07:12:33;2.33;;;1.50;;
73693;SDS011;61997;53.974;11.670;2024-01-07T07:14:58;3.38;;;1.70;;
73693;SDS011;61997;53.974;11.670;2024-01-07T07:17:24;3.42;;;1.55;;
73693;SDS011;61997;53.974;11.670;2024-01-07T07:19:49;3.15;;;1.52;;
73693;SDS011;61997;53.974;11.670;2024-01-07T07:22:14;2.47;;;1.45;;
73693;SDS011;61997;53.974;11.670;2024-01-07T07:24:40;1.95;;;1.33;;
73693;SDS011;61997;53.974;11.670;2024-01-07T07:27:06;2.63;;;1.30;;
73693;SDS011;61997;53.974;11.670;2024-01-07T07:29:32;2.65;;;1.17;;
73693;SDS011;61997;53.974;11.670;2024-01-07T07:31:58;2.55;;;1.58;;
73693;SDS011;61997;53.974;11.670;2024-01-07T07:34:23;2.40;;;1.25;;
73693;SDS011;61997;53.974;11.670;2024-01-07T07:36:49;3.42;;;1.50;;
73693;SDS011;61997;53.974;11.670;2024-01-07T07:39:14;2.35;;;1.60;;
73693;SDS011;61997;53.974;11.670;2024-01-07T07:41:40;2.80;;;1.15;;
73693;SDS011;61997;53.974;11.670;2024-01-07T07:44:07;2.20;;;1.58;;
73693;SDS011;61997;53.974;11.670;2024-01-07T07:46:32;3.47;;;1.33;;
73693;SDS011;61997;53.974;11.670;2024-01-07T07:48:58;3.58;;;1.75;;
73693;SDS011;61997;53.974;11.670;2024-01-07T07:51:23;1.80;;;1.17;;
73693;SDS011;61997;53.974;11.670;2024-01-07T07:53:49;2.47;;;1.45;;
73693;SDS011;61997;53.974;11.670;2024-01-07T07:56:14;2.78;;;1.40;;
73693;SDS011;61997;53.974;11.670;2024-01-07T07:58:40;2.22;;;1.23;;
73693;SDS011;61997;53.974;11.670;2024-01-07T08:01:05;3.58;;;1.17;;
73693;SDS011;61997;53.974;11.670;2024-01-07T08:03:31;3.20;;;1.50;;
73693;SDS011;61997;53.974;11.670;2024-01-07T08:05:57;3.35;;;1.48;;
73693;SDS011;61997;53.974;11.670;2024-01-07T08:08:23;2.53;;;1.17;;
73693;SDS011;61997;53.974;11.670;2024-01-07T08:10:48;4.65;;;1.27;;
73693;SDS011;61997;53.974;11.670;2024-01-07T08:13:13;3.22;;;1.50;;
73693;SDS011;61997;53.974;11.670;2024-01-07T08:15:39;4.32;;;1.50;;
73693;SDS011;61997;53.974;11.670;2024-01-07T08:18:04;2.78;;;1.20;;
73693;SDS011;61997;53.974;11.670;2024-01-07T08:20:30;3.20;;;1.25;;
73693;SDS011;61997;53.974;11.670;2024-01-07T08:22:55;2.95;;;1.55;;
73693;SDS011;61997;53.974;11.670;2024-01-07T08:25:21;2.42;;;1.10;;
73693;SDS011;61997;53.974;11.670;2024-01-07T08:27:47;2.67;;;1.50;;
73693;SDS011;61997;53.974;11.670;2024-01-07T08:30:13;3.15;;;1.27;;
73693;SDS011;61997;53.974;11.670;2024-01-07T08:32:39;3.20;;;1.08;;
73693;SDS011;61997;53.974;11.670;2024-01-07T08:35:05;3.25;;;1.52;;
73693;SDS011;61997;53.974;11.670;2024-01-07T08:37:30;2.17;;;1.27;;
73693;SDS011;61997;53.974;11.670;2024-01-07T08:39:55;3.78;;;1.65;;
73693;SDS011;61997;53.974;11.670;2024-01-07T08:42:21;3.28;;;1.42;;
73693;SDS011;61997;53.974;11.670;2024-01-07T08:44:46;3.03;;;1.48;;
73693;SDS011;61997;53.974;11.670;2024-01-07T08:47:12;1.27;;;1.10;;
73693;SDS011;61997;53.974;11.670;2024-01-07T08:49:38;2.85;;;1.38;;
73693;SDS011;61997;53.974;11.670;2024-01-07T08:52:04;2.35;;;1.20;;
73693;SDS011;61997;53.974;11.670;2024-01-07T08:54:29;2.47;;;1.25;;
73693;SDS011;61997;53.974;11.670;2024-01-07T08:56:55;3.72;;;1.45;;
73693;SDS011;61997;53.974;11.670;2024-01-07T08:59:20;1.50;;;1.08;;
73693;SDS011;61997;53.974;11.670;2024-01-07T09:01:46;2.08;;;1.23;;
73693;SDS011;61997;53.974;11.670;2024-01-07T09:04:11;1.60;;;1.10;;
73693;SDS011;61997;53.974;11.670;2024-01-07T09:06:38;2.60;;;1.17;;
73693;SDS011;61997;53.974;11.670;2024-01-07T09:09:11;3.25;;;1.13;;
73693;SDS011;61997;53.974;11.670;2024-01-07T09:11:36;2.00;;;0.95;;
73693;SDS011;61997;53.974;11.670;2024-01-07T09:14:02;2.58;;;1.35;;
73693;SDS011;61997;53.974;11.670;2024-01-07T09:16:37;2.20;;;1.27;;
73693;SDS011;61997;53.974;11.670;2024-01-07T09:19:02;2.15;;;1.20;;
73693;SDS011;61997;53.974;11.670;2024-01-07T09:21:27;3.20;;;1.30;;
73693;SDS011;61997;53.974;11.670;2024-01-07T09:23:53;2.17;;;1.17;;
73693;SDS011;61997;53.974;11.670;2024-01-07T09:26:18;2.45;;;1.50;;
73693;SDS011;61997;53.974;11.670;2024-01-07T09:28:44;2.92;;;1.45;;
73693;SDS011;61997;53.974;11.670;2024-01-07T09:31:09;3.08;;;1.20;;
73693;SDS011;61997;53.974;11.670;2024-01-07T09:33:35;3.13;;;1.55;;
73693;SDS011;61997;53.974;11.670;2024-01-07T09:36:00;4.30;;;1.45;;
73693;SDS011;61997;53.974;11.670;2024-01-07T09:38:25;2.15;;;1.13;;
73693;SDS011;61997;53.974;11.670;2024-01-07T09:40:51;2.83;;;1.27;;
73693;SDS011;61997;53.974;11.670;2024-01-07T09:43:18;2.22;;;1.23;;
73693;SDS011;61997;53.974;11.670;2024-01-07T09:45:46;2.28;;;1.33;;
73693;SDS011;61997;53.974;11.670;2024-01-07T09:48:12;2.13;;;1.05;;
73693;SDS011;61997;53.974;11.670;2024-01-07T09:50:37;2.65;;;1.38;;
73693;SDS011;61997;53.974;11.670;2024-01-07T09:53:03;2.78;;;1.20;;
73693;SDS011;61997;53.974;11.670;2024-01-07T09:56:33;3.30;;;1.40;;
73693;SDS011;61997;53.974;11.670;2024-01-07T09:58:31;2.25;;;1.27;;
73693;SDS011;61997;53.974;11.670;2024-01-07T10:00:57;2.42;;;1.13;;
73693;SDS011;61997;53.974;11.670;2024-01-07T10:03:23;2.80;;;1.23;;
73693;SDS011;61997;53.974;11.670;2024-01-07T10:05:49;2.20;;;1.20;;
73693;SDS011;61997;53.974;11.670;2024-01-07T10:08:14;2.88;;;1.40;;
73693;SDS011;61997;53.974;11.670;2024-01-07T10:10:40;2.58;;;1.15;;
73693;SDS011;61997;53.974;11.670;2024-01-07T10:13:08;2.88;;;1.08;;
73693;SDS011;61997;53.974;11.670;2024-01-07T10:15:34;2.90;;;1.45;;
73693;SDS011;61997;53.974;11.670;2024-01-07T10:18:03;4.00;;;1.33;;
73693;SDS011;61997;53.974;11.670;2024-01-07T10:20:30;2.60;;;1.20;;
73693;SDS011;61997;53.974;11.670;2024-01-07T10:22:57;3.38;;;1.25;;
73693;SDS011;61997;53.974;11.670;2024-01-07T10:25:22;1.80;;;1.02;;
73693;SDS011;61997;53.974;11.670;2024-01-07T10:27:48;2.50;;;1.10;;
73693;SDS011;61997;53.974;11.670;2024-01-07T10:30:15;1.58;;;0.93;;
73693;SDS011;61997;53.974;11.670;2024-01-07T10:32:42;3.03;;;1.40;;
73693;SDS011;61997;53.974;11.670;2024-01-07T10:35:07;2.38;;;1.10;;
73693;SDS011;61997;53.974;11.670;2024-01-07T10:37:37;2.90;;;1.30;;
73693;SDS011;61997;53.974;11.670;2024-01-07T10:40:03;1.85;;;1.02;;
73693;SDS011;61997;53.974;11.670;2024-01-07T10:42:32;3.28;;;1.25;;
73693;SDS011;61997;53.974;11.670;2024-01-07T10:44:58;3.17;;;1.08;;
73693;SDS011;61997;53.974;11.670;2024-01-07T10:47:25;3.67;;;1.40;;
73693;SDS011;61997;53.974;11.670;2024-01-07T10:49:54;2.10;;;1.38;;
73693;SDS011;61997;53.974;11.670;2024-01-07T10:52:22;2.72;;;1.20;;
73693;SDS011;61997;53.974;11.670;2024-01-07T10:54:48;2.97;;;1.40;;
73693;SDS011;61997;53.974;11.670;2024-01-07T11:00:07;2.80;;;1.23;;
73693;SDS011;61997;53.974;11.670;2024-01-07T11:02:47;1.70;;;1.30;;
73693;SDS011;61997;53.974;11.670;2024-01-07T11:05:49;2.97;;;1.20;;
73693;SDS011;61997;53.974;11.670;2024-01-07T11:10:59;2.60;;;1.20;;
73693;SDS011;61997;53.974;11.670;2024-01-07T11:16:05;2.20;;;1.08;;
73693;SDS011;61997;53.974;11.670;2024-01-07T11:18:37;2.47;;;1.30;;
73693;SDS011;61997;53.974;11.670;2024-01-07T11:21:08;2.60;;;1.10;;
73693;SDS011;61997;53.974;11.670;2024-01-07T11:23:34;2.03;;;1.40;;
73693;SDS011;61997;53.974;11.670;2024-01-07T11:26:07;1.52;;;0.85;;
73693;SDS011;61997;53.974;11.670;2024-01-07T11:28:42;2.00;;;1.30;;
73693;SDS011;61997;53.974;11.670;2024-01-07T11:31:15;2.92;;;1.30;;
73693;SDS011;61997;53.974;11.670;2024-01-07T11:33:42;1.67;;;0.95;;
73693;SDS011;61997;53.974;11.670;2024-01-07T11:36:10;4.13;;;1.40;;
73693;SDS011;61997;53.974;11.670;2024-01-07T11:38:36;3.03;;;1.38;;
73693;SDS011;61997;53.974;11.670;2024-01-07T11:41:04;2.15;;;1.10;;
73693;SDS011;61997;53.974;11.670;2024-01-07T11:43:30;1.80;;;1.15;;
73693;SDS011;61997;53.974;11.670;2024-01-07T11:45:56;2.15;;;1.10;;
73693;SDS011;61997;53.974;11.670;2024-01-07T11:48:21;2.70;;;1.25;;
73693;SDS011;61997;53.974;11.670;2024-01-07T11:50:46;1.85;;;0.85;;
73693;SDS011;61997;53.974;11.670;2024-01-07T11:53:12;2.25;;;1.10;;
73693;SDS011;61997;53.974;11.670;2024-01-07T11:55:38;2.75;;;1.10;;
73693;SDS011;61997;53.974;11.670;2024-01-07T11:58:03;2.33;;;1.20;;
73693;SDS011;61997;53.974;11.670;2024-01-07T12:00:33;2.45;;;0.98;;
73693;SDS011;61997;53.974;11.670;2024-01-07T12:03:00;1.80;;;1.30;;
73693;SDS011;61997;53.974;11.670;2024-01-07T12:05:45;3.03;;;1.13;;
73693;SDS011;61997;53.974;11.670;2024-01-07T12:08:12;1.73;;;0.95;;
73693;SDS011;61997;53.974;11.670;2024-01-07T12:10:38;1.00;;;0.77;;
73693;SDS011;61997;53.974;11.670;2024-01-07T12:13:03;1.98;;;1.13;;
73693;SDS011;61997;53.974;11.670;2024-01-07T12:15:29;2.95;;;1.27;;
73693;SDS011;61997;53.974;11.670;2024-01-07T12:17:56;3.17;;;1.40;;
73693;SDS011;61997;53.974;11.670;2024-01-07T12:20:22;2.10;;;1.10;;
73693;SDS011;61997;53.974;11.670;2024-01-07T12:22:47;3.00;;;1.20;;
73693;SDS011;61997;53.974;11.670;2024-01-07T12:25:13;2.20;;;1.45;;
73693;SDS011;61997;53.974;11.670;2024-01-07T12:27:40;2.05;;;1.20;;
73693;SDS011;61997;53.974;11.670;2024-01-07T12:30:06;3.17;;;1.20;;
73693;SDS011;61997;53.974;11.670;2024-01-07T12:32:32;2.08;;;1.05;;
73693;SDS011;61997;53.974;11.670;2024-01-07T12:34:58;2.80;;;1.27;;
73693;SDS011;61997;53.974;11.670;2024-01-07T12:37:27;2.15;;;1.20;;
73693;SDS011;61997;53.974;11.670;2024-01-07T12:39:53;2.60;;;1.35;;
73693;SDS011;61997;53.974;11.670;2024-01-07T12:42:18;3.50;;;1.73;;
73693;SDS011;61997;53.974;11.670;2024-01-07T12:44:45;2.63;;;1.40;;
73693;SDS011;61997;53.974;11.670;2024-01-07T12:47:10;2.85;;;1.75;;
73693;SDS011;61997;53.974;11.670;2024-01-07T12:49:36;4.60;;;1.70;;
73693;SDS011;61997;53.974;11.670;2024-01-07T12:52:01;4.32;;;1.70;;
73693;SDS011;61997;53.974;11.670;2024-01-07T12:54:28;2.38;;;1.67;;
73693;SDS011;61997;53.974;11.670;2024-01-07T12:56:53;2.47;;;1.55;;
73693;SDS011;61997;53.974;11.670;2024-01-07T12:59:19;3.60;;;1.60;;
73693;SDS011;61997;53.974;11.670;2024-01-07T13:01:44;3.10;;;1.90;;
73693;SDS011;61997;53.974;11.670;2024-01-07T13:04:09;2.63;;;1.42;;
73693;SDS011;61997;53.974;11.670;2024-01-07T13:06:35;4.05;;;1.77;;
73693;SDS011;61997;53.974;11.670;2024-01-07T13:09:00;2.88;;;1.73;;
73693;SDS011;61997;53.974;11.670;2024-01-07T13:11:28;3.35;;;1.65;;
73693;SDS011;61997;53.974;11.670;2024-01-07T13:13:54;3.95;;;1.50;;
73693;SDS011;61997;53.974;11.670;2024-01-07T13:16:23;4.00;;;2.05;;
73693;SDS011;61997;53.974;11.670;2024-01-07T13:18:50;3.08;;;1.88;;
73693;SDS011;61997;53.974;11.670;2024-01-07T13:21:16;3.53;;;1.90;;
73693;SDS011;61997;53.974;11.670;2024-01-07T13:23:42;3.35;;;1.80;;
73693;SDS011;61997;53.974;11.670;2024-01-07T13:26:09;3.50;;;2.05;;
73693;SDS011;61997;53.974;11.670;2024-01-07T13:28:35;4.18;;;2.15;;
73693;SDS011;61997;53.974;11.670;2024-01-07T13:31:00;4.80;;;2.17;;
73693;SDS011;61997;53.974;11.670;2024-01-07T13:33:26;5.57;;;2.03;;
73693;SDS011;61997;53.974;11.670;2024-01-07T13:35:52;4.88;;;2.42;;
73693;SDS011;61997;53.974;11.670;2024-01-07T13:38:18;6.70;;;2.72;;
73693;SDS011;61997;53.974;11.670;2024-01-07T13:40:44;4.35;;;2.33;;
73693;SDS011;61997;53.974;11.670;2024-01-07T13:43:09;5.50;;;2.42;;
73693;SDS011;61997;53.974;11.670;2024-01-07T13:45:34;3.58;;;2.33;;
73693;SDS011;61997;53.974;11.670;2024-01-07T13:48:00;5.75;;;2.35;;
73693;SDS011;61997;53.974;11.670;2024-01-07T13:50:25;6.30;;;2.75;;
73693;SDS011;61997;53.974;11.670;2024-01-07T13:52:51;4.40;;;2.10;;
73693;SDS011;61997;53.974;11.670;2024-01-07T13:55:16;5.05;;;2.47;;
73693;SDS011;61997;53.974;11.670;2024-01-07T13:57:41;5.57;;;2.75;;
73693;SDS011;61997;53.974;11.670;2024-01-07T14:00:07;6.40;;;2.42;;
73693;SDS011;61997;53.974;11.670;2024-01-07T14:02:34;6.57;;;2.72;;
73693;SDS011;61997;53.974;11.670;2024-01-07T14:05:04;5.05;;;2.50;;
73693;SDS011;61997;53.974;11.670;2024-01-07T14:07:31;4.78;;;2.78;;
73693;SDS011;61997;53.974;11.670;2024-01-07T14:09:58;6.40;;;3.40;;
73693;SDS011;61997;53.974;11.670;2024-01-07T14:12:23;5.63;;;2.63;;
73693;SDS011;61997;53.974;11.670;2024-01-07T14:14:49;5.00;;;2.60;;
73693;SDS011;61997;53.974;11.670;2024-01-07T14:17:15;7.25;;;2.45;;
73693;SDS011;61997;53.974;11.670;2024-01-07T14:19:41;7.28;;;3.08;;
73693;SDS011;61997;53.974;11.670;2024-01-07T14:22:08;3.33;;;2.13;;
73693;SDS011;61997;53.974;11.670;2024-01-07T14:24:34;7.20;;;3.08;;
73693;SDS011;61997;53.974;11.670;2024-01-07T14:26:59;7.78;;;3.33;;
73693;SDS011;61997;53.974;11.670;2024-01-07T14:29:25;4.95;;;3.05;;
73693;SDS011;61997;53.974;11.670;2024-01-07T14:31:50;7.28;;;3.20;;
73693;SDS011;61997;53.974;11.670;2024-01-07T14:34:16;9.82;;;3.78;;
73693;SDS011;61997;53.974;11.670;2024-01-07T14:36:41;6.47;;;3.42;;